Terminal Aerodrome Forecast
Issued by NWS Cleveland, OH

Home | Current Version | Previous Version | Text Only | Print | Product List | Glossary On
Versions: 1 2 3 4 5 6 7 8 9 10 11 12 13 14 15 16 17 18 19 20 21 22 23
000
FTUS41 KCLE 051200 AAA
TAFCAK
TAF AMD
KCAK 051219Z 0512/0612 VRB02KT 3SM BR SCT025 OVC060
      TEMPO 0512/0514 5SM BR BKN025
     FM051400 VRB05KT 6SM -SHRA BR OVC045
      TEMPO 0514/0516 4SM -SHRA BKN025
     FM051600 20006KT P6SM SCT035 OVC100
     FM052000 VRB04KT P6SM VCSH BKN035 OVC100
     FM060800 VRB03KT 4SM BR SCT040 BKN200=

USA.gov is the U.S. government's official web portal to all federal, state and local government web resources and services.